ADDS METAR Data INFO
IDs: Format: Raw Decoded Include TAF

Data at: 0936 UTC 25 Jun 2018

KMML 250856Z AUTO 10007KT 10SM SCT028 18/17 A2998 RMK AO2 SLP150 60000 T01780172 53003
KMML 250842Z AUTO 09006KT 10SM BKN028 18/17 A2997 RMK AO2
KMML 250756Z AUTO 06006KT 10SM CLR 18/17 A2995 RMK AO2 RAE20 SLP139 P0000 T01780167
KMML 250656Z AUTO 00000KT 10SM -RA FEW120 19/17 A2997 RMK AO2 RAB26 SLP144 P0000 T01890167
KMML 250556Z AUTO 16007KT 10SM CLR 19/17 A2997 RMK AO2 SLP146 60003 T01940167 10211 20183 402440183 58001
KMML 250456Z AUTO 13008KT 10SM CLR 19/17 A2997 RMK AO2 SLP146 T01940172
KMML 250356Z AUTO 11004KT 10SM CLR 19/17 A2999 RMK AO2 RAB24E53 SLP152 P0000 T01890172
KMML 250256Z AUTO 17007KT 10SM CLR 19/17 A2997 RMK AO2 RAE28 PRESRR SLP147 P0000 60003 T01890172 53016
KMML 250156Z AUTO 16010G17KT 10SM -RA FEW060 SCT080 BKN120 19/17 A2993 RMK AO2 RAB00 SLP134 P0003 T01890172
KMML 250056Z AUTO 15013KT 10SM BKN120 20/18 A2994 RMK AO2 LTG DSNT SE AND S TSE04RAB12E35 SLP135 P0000 T02000178
KMML 250010Z AUTO 14013KT 10SM FEW090 BKN120 21/19 A2993 RMK AO2 LTG DSNT SE-SW TSE04
KMML 242356Z AUTO 13012KT 10SM VCTS BKN120 21/19 A2992 RMK AO2 LTG DSNT SE-SW TSB49RAE27 SLP131 P0001 60016 T02110189 10244 20211 53010
KMML 242256Z AUTO 13018G23KT 10SM -RA FEW029 BKN047 OVC065 21/19 A2989 RMK AO2 LTG DSNT S AND SW TSE22B24E46 SLP119 P0015 T02110194
KMML 242252Z AUTO 14016KT 10SM -RA SCT028 SCT039 OVC049 21/19 A2989 RMK AO2 LTG DSNT SE-SW TSE22B24E46 P0015
KMML 242224Z AUTO 13008KT 6SM TSRA BR FEW034 BKN050 OVC075 22/19 A2991 RMK AO2 LTG DSNT SE-SW TSE22B24 P0008
KMML 242156Z AUTO 11011KT 10SM TSRA FEW039 BKN120 22/19 A2990 RMK AO2 LTG DSNT S-NW RAB47 SLP122 P0000 T02220194
KMML 242056Z AUTO 11016G22KT 10SM VCTS SCT110 23/19 A2989 RMK AO2 LTG DSNT SW-NW TSB20E35B39 SLP117 T02330189 50003
KMML 242039Z AUTO 12018G21KT 10SM VCTS SCT100 24/19 A2989 RMK AO2 LTG DSNT SW AND W TSB20E35B39
KMML 242026Z AUTO 13016KT 10SM VCTS FEW110 24/19 A2988 RMK AO2 LTG DSNT SW AND W TSB20
KMML 241956Z AUTO 12016G21KT 10SM SCT017 SCT090 23/20 A2989 RMK AO2 LTG DSNT SW SLP119 T02330200
KMML 241856Z AUTO 12012KT 10SM SCT095 24/20 A2988 RMK AO2 SLP116 T02390200
KMML 241804Z AUTO 13016KT 10SM FEW018 SCT110 24/19 A2988 RMK AO2
KMML 241656Z AUTO 10013KT 10SM BKN016 OVC030 23/20 A2988 RMK AO2 SLP114 T02330200
KMML 241640Z AUTO 13011KT 10SM OVC016 23/19 A2988 RMK AO2
KMML 241628Z AUTO 14009KT 10SM BKN014 BKN019 OVC025 22/19 A2988 RMK AO2
KMML 241610Z AUTO 12013KT 10SM SCT012 OVC023 22/19 A2987 RMK AO2
KMML 241556Z AUTO 11014KT 10SM BKN012 OVC023 22/19 A2986 RMK AO2 SLP109 T02170189
KMML 241456Z AUTO 11007KT 10SM BKN012 BKN028 22/19 A2985 RMK AO2 SLP104 T02170189 50006
KMML 241409Z AUTO 15007KT 10SM BKN010 BKN027 21/18 A2986 RMK AO2
KMML 241356Z AUTO 17006KT 10SM BKN008 OVC027 20/18 A2986 RMK AO2 CIG 007V011 SLP109 T02000183
KMML 241335Z AUTO 16007KT 10SM BKN006 OVC027 21/19 A2986 RMK AO2
KMML 241256Z AUTO 14009KT 10SM SCT018 OVC025 19/18 A2984 RMK AO2 SLP102 T01940183
KMML 241156Z AUTO 14007KT 10SM OVC016 19/18 A2983 RMK AO2 SLP098 60007 70007 T01940183 10211 20183 53019
KMML 241056Z AUTO 11009KT 9SM OVC016 19/18 A2978 RMK AO2 LTG DSNT N AND NE TSB21E36RAB20E30 SLP079 P0000 T01890178
KMML 241042Z AUTO 12009KT 9SM OVC016 19/18 A2977 RMK AO2 LTG DSNT N-SE TSB21E36RAB20E30 P0000
KMML 241027Z AUTO 13008KT 10SM VCTS -RA OVC018 19/18 A2977 RMK AO2 LTG DSNT N-SE TSB21RAB20 P0000
KMML 241012Z AUTO 13007KT 10SM BKN018 BKN050 18/18 A2977 RMK AO2 LTG DSNT N-SE
KMML 240956Z AUTO 16008KT 10SM FEW050 SCT065 SCT095 18/18 A2978 RMK AO2 LTG DSNT N AND NE SLP079 T01830178
KMML 240856Z AUTO 14009KT 10SM BKN060 19/18 A2978 RMK AO2 LTG DSNT N AND E SLP078 60007 T01940178 57003
KMML 240756Z AUTO 14008KT 10SM FEW065 BKN100 19/18 A2978 RMK AO2 LTG DSNT N-SE TSB34E41B44E49RAE50 SLP080 P0003 T01890178
KMML 240744Z AUTO 15006KT 10SM VCTS -RA FEW055 SCT070 OVC100 19/18 A2978 RMK AO2 LTG DSNT ALQDS TSB34E41B44 P0003
KMML 240740Z AUTO 14006KT 10SM VCTS -RA FEW050 BKN080 OVC100 18/18 A2978 RMK AO2 LTG DSNT E AND NW TSB34 P0003
KMML 240656Z AUTO 19004KT 10SM RA FEW035 OVC065 19/17 A2978 RMK AO2 LTG DSNT SE AND NW TSE41B43E51RAB16 SLP082 P0004 T01890172
KMML 240643Z AUTO 21008KT 10SM VCTS -RA FEW035 BKN070 OVC110 18/17 A2979 RMK AO2 LTG DSNT NW TSE41B43RAB16 P0002
KMML 240556Z AUTO 18007KT 10SM VCTS BKN060 BKN080 OVC110 21/18 A2979 RMK AO2 LTG DSNT S AND SW TSB43 SLP081 T02110178 10244 20200 402610150 53005
KMML 240549Z AUTO 18007KT 10SM VCTS BKN060 OVC070 21/18 A2979 RMK AO2 LTG DSNT S AND SW TSB43
KMML 240456Z AUTO 17006KT 10SM FEW065 SCT110 21/18 A2978 RMK AO2 LTG DSNT SW SLP080 T02060178
KMML 240356Z AUTO 15008KT 10SM SCT070 21/18 A2975 RMK AO2 SLP071 T02110178
KMML 240256Z AUTO 15007KT 10SM SCT040 BKN060 OVC070 22/17 A2977 RMK AO2 SLP076 T02220172 53015
KMML 240156Z AUTO 15007KT 10SM FEW055 OVC075 23/17 A2975 RMK AO2 SLP070 T02280172
KMML 240056Z AUTO 15007KT 10SM OVC070 23/17 A2973 RMK AO2 SLP065 T02330172
KMML 232356Z AUTO 16009KT 10SM FEW045 BKN070 24/17 A2972 RMK AO2 SLP062 T02440172 10261 20244 58004
KMML 232256Z AUTO 16012KT 10SM SCT042 26/16 A2973 RMK AO2 SLP065 T02560161
KMML 232156Z AUTO 18014KT 10SM FEW045 26/17 A2973 RMK AO2 SLP064 T02610172